M I D A S
Marine Information and Data Acquisition System
Tripno 1791 of the Zeeleeuw from 2009-09-28 09:58:56 to 2009-09-28 15:36:03
Back to CruiseResearch ActivitiesStationsMapUnderway DataData graphs

EquipmentUnitsComment
TimeDGPSUTC
LatitudeDGPSDM.mWGS84
LongitudeDGPSDM.mWGS84
HeadingGyrodeg 
SOGDGPSknotsSpeed over ground
COGDGPSdegCourse over ground
DepthEcho soundermeters200 kHz
Missing or incorrect values are displayed as -999
Navigation data collected by the RV Zeeleeuw from 2009-09-28 09:57:43 to 2009-09-28 15:41:13
                                                                                    Next 1000 lines
Time Latitude Longitude Heading SOG COG Depth
2009-09-28 09:57:53 51°13.663 2°55.959 111.8 0.5 288 8.7
2009-09-28 09:57:58 51°13.664 2°55.957 111.6 0.7 286 8.7
2009-09-28 09:58:03 51°13.664 2°55.955 111.5 0.8 288 8.8
2009-09-28 09:58:08 51°13.665 2°55.953 111.7 1 289 8.8
2009-09-28 09:58:13 51°13.665 2°55.951 112 1.2 293 8.8
2009-09-28 09:58:18 51°13.666 2°55.948 112.5 1.5 293 5.2
2009-09-28 09:58:23 51°13.667 2°55.945 112.9 1.7 292 -999
2009-09-28 09:58:29 51°13.668 2°55.94 113.3 2 292 -999
2009-09-28 09:58:35 51°13.67 2°55.935 113.4 2.2 294 -999
2009-09-28 09:58:41 51°13.671 2°55.929 113.5 2.4 293 -999
2009-09-28 09:58:46 51°13.673 2°55.924 113.6 2.5 294 -999
2009-09-28 09:58:52 51°13.674 2°55.918 113.7 2.6 294 -999
2009-09-28 09:58:56 51°13.675 2°55.914 113.6 2.6 293 -999
2009-09-28 09:59:02 51°13.677 2°55.908 113.3 2.6 294 -999
2009-09-28 09:59:07 51°13.679 2°55.902 113.1 2.7 291 -999
2009-09-28 09:59:12 51°13.68 2°55.897 112.6 2.6 292 -999
2009-09-28 09:59:16 51°13.681 2°55.892 112 2.6 291 -999
2009-09-28 09:59:22 51°13.683 2°55.886 111.7 2.7 291 -999
2009-09-28 09:59:27 51°13.684 2°55.88 110.9 2.8 290 -999
2009-09-28 09:59:32 51°13.685 2°55.874 110.3 2.7 290 -999
2009-09-28 09:59:36 51°13.686 2°55.87 109.7 2.6 289 -999
2009-09-28 09:59:42 51°13.688 2°55.863 109.4 2.6 289 -999
2009-09-28 09:59:46 51°13.689 2°55.859 108.6 2.6 291 -999
2009-09-28 09:59:52 51°13.69 2°55.853 107.9 2.6 288 -999
2009-09-28 09:59:56 51°13.691 2°55.848 107.2 2.7 287 -999
2009-09-28 10:00:02 51°13.692 2°55.841 106.4 2.6 287 -999
2009-09-28 10:00:07 51°13.693 2°55.836 105.3 2.6 287 -999
2009-09-28 10:00:12 51°13.694 2°55.83 104.4 2.6 286 -999
2009-09-28 10:00:16 51°13.695 2°55.826 103.4 2.6 285 -999
2009-09-28 10:00:22 51°13.696 2°55.819 102.6 2.6 284 -999
2009-09-28 10:00:27 51°13.697 2°55.814 101.4 2.5 284 -999
2009-09-28 10:00:31 51°13.697 2°55.81 100.4 2.4 283 -999
2009-09-28 10:00:37 51°13.698 2°55.804 99.7 2.3 284 -999
2009-09-28 10:00:42 51°13.699 2°55.799 99.3 2.1 283 -999
2009-09-28 10:00:47 51°13.7 2°55.795 98.6 1.9 283 -999
2009-09-28 10:00:51 51°13.7 2°55.792 97.7 1.7 284 -999
2009-09-28 10:00:56 51°13.701 2°55.789 96.4 1.3 286 -999
2009-09-28 10:01:01 51°13.701 2°55.787 94.9 0.8 294 13.8
2009-09-28 10:01:06 51°13.701 2°55.787 92.5 0.5 318 13.7
2009-09-28 10:01:11 51°13.702 2°55.786 89.8 0.4 9 13.6
2009-09-28 10:01:16 51°13.703 2°55.787 86.4 0.5 41 13.7
2009-09-28 10:01:20 51°13.703 2°55.788 81.5 0.8 55 13.7
2009-09-28 10:01:25 51°13.704 2°55.79 76.1 1.1 55 13.7
2009-09-28 10:01:30 51°13.705 2°55.792 70.4 1.1 57 13.5
2009-09-28 10:01:35 51°13.706 2°55.794 64.4 1 49 13.7
2009-09-28 10:01:40 51°13.706 2°55.796 59.1 0.9 54 4.6
2009-09-28 10:01:45 51°13.707 2°55.797 54.8 0.7 49 13.5
2009-09-28 10:01:50 51°13.707 2°55.798 52.4 0.4 48 13.4
2009-09-28 10:01:55 51°13.708 2°55.798 49.5 0.1 57 13.3
2009-09-28 10:02:00 51°13.707 2°55.798 46.8 0.2 218 13.3
2009-09-28 10:02:04 51°13.707 2°55.797 44.4 0.5 219 13.4
2009-09-28 10:02:09 51°13.706 2°55.796 42.4 0.8 219 13.6
2009-09-28 10:02:14 51°13.705 2°55.795 40.7 1.1 218 13.6
2009-09-28 10:02:19 51°13.703 2°55.793 39.3 1.3 217 13.8
2009-09-28 10:02:24 51°13.702 2°55.791 38 1.3 216 13.6
2009-09-28 10:02:29 51°13.701 2°55.79 36.9 1.1 217 4.6
2009-09-28 10:02:34 51°13.7 2°55.789 36.5 0.8 217 -999
2009-09-28 10:02:40 51°13.7 2°55.788 35.6 0.2 229 -999
2009-09-28 10:02:45 51°13.7 2°55.788 32.9 0.4 8 -999
2009-09-28 10:02:51 51°13.702 2°55.789 28.8 1.1 16 -999
2009-09-28 10:02:56 51°13.704 2°55.79 23.5 1.5 11 -999
2009-09-28 10:03:01 51°13.706 2°55.79 18.6 1.7 10 5.1
2009-09-28 10:03:06 51°13.707 2°55.79 13.2 1.5 359 5.4
2009-09-28 10:03:11 51°13.709 2°55.79 6.7 1.3 5 13.8
2009-09-28 10:03:16 51°13.711 2°55.79 2.8 0.9 1 13.8
2009-09-28 10:03:21 51°13.711 2°55.79 359.9 0.5 8 13.4
2009-09-28 10:03:26 51°13.711 2°55.79 356.9 0.2 44 13.3
2009-09-28 10:03:31 51°13.711 2°55.791 354.2 0.3 147 13.3
2009-09-28 10:03:35 51°13.71 2°55.791 352 0.6 158 13.3
2009-09-28 10:03:40 51°13.709 2°55.792 350.4 0.9 163 13.6
2009-09-28 10:03:45 51°13.708 2°55.793 349.1 1.1 158 13.7
2009-09-28 10:03:50 51°13.706 2°55.793 347.8 1 165 13.6
2009-09-28 10:03:55 51°13.705 2°55.794 346.8 0.9 161 -999
2009-09-28 10:04:00 51°13.704 2°55.794 346.1 0.5 166 -999
2009-09-28 10:04:06 51°13.703 2°55.794 345 -999 78 -999
2009-09-28 10:04:12 51°13.704 2°55.793 342.5 0.5 333 -999
2009-09-28 10:04:16 51°13.704 2°55.792 338.4 0.9 333 -999
2009-09-28 10:04:22 51°13.706 2°55.791 333.2 1.1 329 -999
2009-09-28 10:04:26 51°13.707 2°55.79 328.7 1.3 325 4.5
2009-09-28 10:04:31 51°13.709 2°55.788 324.3 1.5 321 4.6
2009-09-28 10:04:36 51°13.711 2°55.785 320.9 1.7 320 4.6
2009-09-28 10:04:41 51°13.713 2°55.782 317.8 2 315 4.8
2009-09-28 10:04:45 51°13.714 2°55.779 315.8 2.2 315 5
2009-09-28 10:04:51 51°13.717 2°55.775 314.5 2.4 311 14.1
2009-09-28 10:04:56 51°13.72 2°55.77 313.4 2.7 312 13.8
2009-09-28 10:05:00 51°13.722 2°55.767 312.9 3 311 14
2009-09-28 10:05:05 51°13.725 2°55.761 312.6 3.2 311 13.5
2009-09-28 10:05:10 51°13.728 2°55.756 312.9 3.5 313 13
2009-09-28 10:05:15 51°13.732 2°55.75 313.6 3.6 313 13
2009-09-28 10:05:20 51°13.735 2°55.744 314.3 3.8 314 12.7
2009-09-28 10:05:24 51°13.738 2°55.739 314.7 4 314 12.7
2009-09-28 10:05:29 51°13.742 2°55.732 315.1 4.1 315 12.5
2009-09-28 10:05:34 51°13.746 2°55.725 315.6 4.3 314 12.5
2009-09-28 10:05:39 51°13.751 2°55.719 316.1 4.4 316 12.5
2009-09-28 10:05:44 51°13.755 2°55.712 317.3 4.5 316 12.5
2009-09-28 10:05:49 51°13.76 2°55.705 318.8 4.6 319 12.4
2009-09-28 10:05:53 51°13.764 2°55.7 320.4 4.7 319 12.1
2009-09-28 10:05:58 51°13.769 2°55.693 322.3 4.8 323 12.1
2009-09-28 10:06:03 51°13.774 2°55.687 324.6 4.9 325 12.2
2009-09-28 10:06:08 51°13.78 2°55.681 327.3 5 328 12.1
2009-09-28 10:06:13 51°13.787 2°55.675 329.2 5.2 329 11.9
2009-09-28 10:06:18 51°13.793 2°55.669 330.1 5.3 330 12.3
2009-09-28 10:06:23 51°13.8 2°55.663 330.3 5.5 330 12.2
2009-09-28 10:06:28 51°13.806 2°55.657 330.3 5.6 330 12.3
2009-09-28 10:06:33 51°13.813 2°55.651 330.3 5.7 330 12.2
2009-09-28 10:06:38 51°13.821 2°55.644 330.8 5.9 331 12.1
2009-09-28 10:06:43 51°13.828 2°55.638 331.7 6 333 12
2009-09-28 10:06:48 51°13.836 2°55.632 333 6 332 12.3
2009-09-28 10:06:53 51°13.843 2°55.626 333.9 6.1 334 11.9
2009-09-28 10:06:58 51°13.851 2°55.62 334.6 6.2 334 12.1
2009-09-28 10:07:03 51°13.859 2°55.614 335 6.3 334 12.3
2009-09-28 10:07:08 51°13.867 2°55.608 335.4 6.3 335 12.9
2009-09-28 10:07:13 51°13.875 2°55.602 336.1 6.4 336 12.5
2009-09-28 10:07:18 51°13.883 2°55.597 336.8 6.4 336 12.5
2009-09-28 10:07:23 51°13.891 2°55.591 336.8 6.5 336 12.4
2009-09-28 10:07:28 51°13.9 2°55.585 336.8 6.5 337 12.4
2009-09-28 10:07:33 51°13.908 2°55.579 337 6.5 336 12.3
2009-09-28 10:07:38 51°13.916 2°55.574 337.6 6.5 337 12.2
2009-09-28 10:07:43 51°13.924 2°55.568 337.8 6.5 337 12.3
2009-09-28 10:07:48 51°13.933 2°55.562 337.8 6.6 337 12.4
2009-09-28 10:07:52 51°13.939 2°55.557 337.6 6.6 336 12.2
2009-09-28 10:07:58 51°13.95 2°55.55 337.3 6.6 336 12.3
2009-09-28 10:08:03 51°13.958 2°55.545 337.1 6.6 336 12.3
2009-09-28 10:08:08 51°13.967 2°55.539 337.4 6.6 337 12.4
2009-09-28 10:08:13 51°13.975 2°55.533 338 6.6 337 12.3
2009-09-28 10:08:18 51°13.983 2°55.527 338.2 6.6 336 12.3
2009-09-28 10:08:23 51°13.992 2°55.521 337.6 6.6 335 12.3
2009-09-28 10:08:28 51°14 2°55.515 337 6.6 335 12.2
2009-09-28 10:08:33 51°14.008 2°55.509 337 6.6 336 12.2
2009-09-28 10:08:38 51°14.017 2°55.503 337.2 6.6 336 11.9
2009-09-28 10:08:43 51°14.025 2°55.497 337.2 6.6 335 12
2009-09-28 10:08:48 51°14.033 2°55.491 336.7 6.7 335 11.8
2009-09-28 10:08:53 51°14.041 2°55.485 336.1 6.7 335 11.7
2009-09-28 10:08:58 51°14.05 2°55.478 335.9 6.7 335 12
2009-09-28 10:09:03 51°14.058 2°55.472 336.1 6.7 336 12.2
2009-09-28 10:09:08 51°14.067 2°55.466 336.9 6.7 337 12
2009-09-28 10:09:13 51°14.075 2°55.46 337.3 6.7 336 12
2009-09-28 10:09:18 51°14.083 2°55.454 337.4 6.7 335 12
2009-09-28 10:09:23 51°14.092 2°55.448 336.8 6.7 334 12
2009-09-28 10:09:28 51°14.1 2°55.441 335.6 6.7 333 12
2009-09-28 10:09:33 51°14.109 2°55.435 334.8 6.7 333 12
2009-09-28 10:09:38 51°14.118 2°55.428 334.7 6.9 333 12.1
2009-09-28 10:09:43 51°14.126 2°55.421 334.5 7 332 12
2009-09-28 10:09:48 51°14.135 2°55.414 333.5 7.1 331 12
2009-09-28 10:09:52 51°14.142 2°55.408 332.6 7.1 331 12
2009-09-28 10:09:58 51°14.153 2°55.398 331.3 7.2 328 12.1
2009-09-28 10:10:03 51°14.161 2°55.389 330 7.2 327 12.1
2009-09-28 10:10:08 51°14.169 2°55.38 327.3 7.3 326 12
2009-09-28 10:10:13 51°14.178 2°55.37 325.4 7.3 323 12
2009-09-28 10:10:18 51°14.185 2°55.36 323.3 7.4 322 12
2009-09-28 10:10:23 51°14.193 2°55.35 322.2 7.4 320 12
2009-09-28 10:10:28 51°14.201 2°55.34 320.9 7.4 321 12.1
2009-09-28 10:10:33 51°14.209 2°55.328 320.2 7.5 318 12
2009-09-28 10:10:38 51°14.217 2°55.318 319.8 7.5 319 12
2009-09-28 10:10:43 51°14.225 2°55.306 318.9 7.7 317 12
2009-09-28 10:10:48 51°14.232 2°55.295 318 7.8 317 12
2009-09-28 10:10:53 51°14.241 2°55.283 317.5 7.9 317 12
2009-09-28 10:10:58 51°14.248 2°55.271 316.8 7.9 316 12
2009-09-28 10:11:03 51°14.256 2°55.258 316.1 8 315 12.3
2009-09-28 10:11:08 51°14.264 2°55.245 315.4 8.1 315 11.8
2009-09-28 10:11:13 51°14.272 2°55.233 315.4 8.1 315 11.8
2009-09-28 10:11:18 51°14.28 2°55.22 314.9 8.2 313 11.7
2009-09-28 10:11:23 51°14.288 2°55.206 314 8.2 313 12
2009-09-28 10:11:28 51°14.295 2°55.193 313.1 8.2 311 11.9
2009-09-28 10:11:33 51°14.303 2°55.179 312.3 8.2 311 11.9
2009-09-28 10:11:38 51°14.31 2°55.165 311.6 8.2 310 11.7
2009-09-28 10:11:43 51°14.317 2°55.151 311.2 8.2 310 11.8
2009-09-28 10:11:48 51°14.325 2°55.137 310.8 8.2 310 11.9
2009-09-28 10:11:53 51°14.332 2°55.123 311.2 8.3 311 11.8
2009-09-28 10:11:58 51°14.34 2°55.109 311.9 8.3 311 12.2
2009-09-28 10:12:03 51°14.347 2°55.096 312.5 8.3 312 11.9
2009-09-28 10:12:08 51°14.355 2°55.082 313.1 8.3 312 11.9
2009-09-28 10:12:13 51°14.363 2°55.068 313.5 8.4 313 11.8
2009-09-28 10:12:18 51°14.371 2°55.055 314.2 8.4 314 11.5
2009-09-28 10:12:23 51°14.379 2°55.041 314.7 8.5 314 11.3
2009-09-28 10:12:28 51°14.387 2°55.028 314.8 8.5 314 11
2009-09-28 10:12:33 51°14.396 2°55.015 315.1 8.6 315 10.9
2009-09-28 10:12:38 51°14.405 2°55.002 316.4 8.6 317 10.9
2009-09-28 10:12:43 51°14.414 2°54.989 318.3 8.7 319 10.9
2009-09-28 10:12:48 51°14.423 2°54.977 320.9 8.8 321 11
2009-09-28 10:12:53 51°14.433 2°54.965 322.4 8.8 323 11.1
2009-09-28 10:12:58 51°14.443 2°54.953 324.2 9 325 11.1
2009-09-28 10:13:03 51°14.454 2°54.942 326.7 9.3 327 11.1
2009-09-28 10:13:08 51°14.465 2°54.931 327.7 9.4 327 11.2
2009-09-28 10:13:13 51°14.476 2°54.92 328.2 9.6 328 11.1
2009-09-28 10:13:18 51°14.488 2°54.909 328.6 9.7 329 11.1
2009-09-28 10:13:23 51°14.499 2°54.898 329.4 9.8 330 11.1
2009-09-28 10:13:28 51°14.511 2°54.886 329.4 9.9 329 11.1
2009-09-28 10:13:33 51°14.523 2°54.875 328.9 9.9 329 11.1
2009-09-28 10:13:38 51°14.535 2°54.864 329.4 10 331 10.9
2009-09-28 10:13:43 51°14.547 2°54.854 330.3 10 331 10.8
2009-09-28 10:13:48 51°14.559 2°54.843 331.1 10 332 10.8
2009-09-28 10:13:53 51°14.572 2°54.834 332.5 10 334 10.9
2009-09-28 10:13:58 51°14.584 2°54.823 332.9 10.1 333 10.7
2009-09-28 10:14:03 51°14.597 2°54.814 333.9 10.2 335 10.6
2009-09-28 10:14:08 51°14.61 2°54.804 334.3 10.4 334 10.6
2009-09-28 10:14:12 51°14.621 2°54.796 335.2 10.5 335 10.6
2009-09-28 10:14:18 51°14.637 2°54.784 335.9 10.6 335 10.5
2009-09-28 10:14:23 51°14.65 2°54.774 335.9 10.7 335 10.6
2009-09-28 10:14:28 51°14.663 2°54.764 335.4 10.7 334 10.5
2009-09-28 10:14:32 51°14.674 2°54.756 335.2 10.8 335 10.6
2009-09-28 10:14:38 51°14.69 2°54.743 335.2 10.8 335 10.5
2009-09-28 10:14:43 51°14.704 2°54.733 335.2 10.9 335 10.5
2009-09-28 10:14:48 51°14.718 2°54.723 335.4 10.9 335 10.5
2009-09-28 10:14:53 51°14.732 2°54.713 335.4 10.9 335 10.5
2009-09-28 10:14:58 51°14.746 2°54.702 334.7 11 334 10.5
2009-09-28 10:15:03 51°14.759 2°54.692 334.7 11 334 10.5
2009-09-28 10:15:08 51°14.773 2°54.681 334.7 11 334 10.7
2009-09-28 10:15:13 51°14.787 2°54.671 334.7 11 335 10.5
2009-09-28 10:15:18 51°14.801 2°54.66 334.9 11 335 10.4
2009-09-28 10:15:23 51°14.814 2°54.65 335 11 335 10.5
2009-09-28 10:15:28 51°14.828 2°54.64 335 11 334 10.7
2009-09-28 10:15:33 51°14.842 2°54.629 334.7 11 334 10.5
2009-09-28 10:15:38 51°14.856 2°54.618 334.5 11 334 10.4
2009-09-28 10:15:43 51°14.869 2°54.608 334.4 11 334 10.5
2009-09-28 10:15:48 51°14.883 2°54.597 334.7 11 334 10.5
2009-09-28 10:15:53 51°14.897 2°54.587 334.7 11 334 10.7
2009-09-28 10:15:58 51°14.911 2°54.576 334 11 333 10.8
2009-09-28 10:16:03 51°14.924 2°54.565 333.5 11 333 10.8
2009-09-28 10:16:08 51°14.938 2°54.554 333.1 11 332 10.9
2009-09-28 10:16:13 51°14.952 2°54.542 332.2 11 332 10.8
2009-09-28 10:16:18 51°14.965 2°54.53 331.6 11 331 10.9
2009-09-28 10:16:23 51°14.979 2°54.518 330.9 11 330 10.9
2009-09-28 10:16:28 51°14.992 2°54.506 330.3 11 330 11.1
2009-09-28 10:16:32 51°15.003 2°54.497 330.2 11 330 11.4
2009-09-28 10:16:38 51°15.018 2°54.482 329.9 11 330 11.3
2009-09-28 10:16:43 51°15.032 2°54.47 329.6 11 330 11.2
2009-09-28 10:16:48 51°15.045 2°54.457 329.5 11 329 11.2
2009-09-28 10:16:52 51°15.055 2°54.447 329.3 11 329 11.1
2009-09-28 10:16:58 51°15.071 2°54.432 329.1 11 329 11.2
2009-09-28 10:17:03 51°15.084 2°54.42 329.1 11 329 11
2009-09-28 10:17:08 51°15.097 2°54.407 329.3 11 329 10.9
2009-09-28 10:17:13 51°15.11 2°54.395 329.3 10.9 329 10.8
2009-09-28 10:17:18 51°15.123 2°54.382 329 10.9 328 10.9
2009-09-28 10:17:23 51°15.135 2°54.369 329 10.9 328 11
2009-09-28 10:17:28 51°15.148 2°54.357 328.9 10.9 329 10.9
2009-09-28 10:17:33 51°15.162 2°54.345 329.4 10.9 329 10.8
2009-09-28 10:17:38 51°15.174 2°54.332 329.6 10.9 329 10.7
2009-09-28 10:17:43 51°15.187 2°54.32 329.7 10.9 330 10.6
2009-09-28 10:17:48 51°15.201 2°54.308 330.8 10.9 331 10.3
2009-09-28 10:17:53 51°15.214 2°54.296 331.1 10.9 330 10.3
2009-09-28 10:17:58 51°15.227 2°54.284 330.7 10.9 330 10.3
2009-09-28 10:18:03 51°15.24 2°54.272 330.3 10.9 330 10.1
2009-09-28 10:18:08 51°15.253 2°54.26 330.5 10.9 331 10
2009-09-28 10:18:13 51°15.266 2°54.249 331.1 11 331 10.2
2009-09-28 10:18:18 51°15.28 2°54.237 331.2 11 331 9.9
2009-09-28 10:18:23 51°15.294 2°54.225 331.5 11 332 10.4
2009-09-28 10:18:28 51°15.307 2°54.214 331.9 11 331 10.2
2009-09-28 10:18:33 51°15.32 2°54.203 332 11 332 10.1
2009-09-28 10:18:38 51°15.334 2°54.191 331.8 11 331 10.1
2009-09-28 10:18:43 51°15.347 2°54.179 331.5 11 332 10.3
2009-09-28 10:18:48 51°15.361 2°54.168 331.8 11 332 10.4
2009-09-28 10:18:52 51°15.371 2°54.159 332.3 11 332 10.3
2009-09-28 10:18:58 51°15.387 2°54.144 332.2 11 331 10.6
2009-09-28 10:19:03 51°15.401 2°54.133 331.9 11 331 10.5
2009-09-28 10:19:08 51°15.414 2°54.121 331.8 11 331 10.4
2009-09-28 10:19:13 51°15.427 2°54.109 331.3 11 331 10.5
2009-09-28 10:19:18 51°15.441 2°54.097 331.5 11 331 10.6
2009-09-28 10:19:23 51°15.454 2°54.085 331.4 11 330 10.7
2009-09-28 10:19:28 51°15.467 2°54.073 331.2 11 331 10.7
2009-09-28 10:19:33 51°15.481 2°54.061 331.5 11 331 10.6
2009-09-28 10:19:38 51°15.494 2°54.05 331.7 11 332 10.8
2009-09-28 10:19:43 51°15.507 2°54.038 331.9 11 332 10.8
2009-09-28 10:19:48 51°15.521 2°54.027 332.1 11 332 10.9
2009-09-28 10:19:53 51°15.534 2°54.015 332.1 11 331 10.9
2009-09-28 10:19:58 51°15.548 2°54.003 331.8 11 331 11.1
2009-09-28 10:20:03 51°15.561 2°53.991 331.5 11 331 11.3
2009-09-28 10:20:08 51°15.574 2°53.98 331.5 11 331 11.1
2009-09-28 10:20:13 51°15.588 2°53.968 331.6 11 331 11.2
2009-09-28 10:20:18 51°15.601 2°53.957 331.7 11 331 11.3
2009-09-28 10:20:23 51°15.614 2°53.945 331.4 11 331 11.4
2009-09-28 10:20:28 51°15.628 2°53.933 331.4 11 331 11.5
2009-09-28 10:20:33 51°15.641 2°53.921 331.5 11 332 11.5
2009-09-28 10:20:38 51°15.654 2°53.91 331.7 10.9 331 11.4
2009-09-28 10:20:43 51°15.668 2°53.898 331.6 10.9 331 11.3
2009-09-28 10:20:48 51°15.681 2°53.886 331.2 11 330 11.7
2009-09-28 10:20:53 51°15.694 2°53.874 331.2 11 331 11.5
2009-09-28 10:20:58 51°15.708 2°53.863 331.3 11 331 11.7
2009-09-28 10:21:03 51°15.721 2°53.851 331.3 11 331 11.7
2009-09-28 10:21:08 51°15.734 2°53.839 331.3 11 330 11.8
2009-09-28 10:21:13 51°15.747 2°53.827 331.1 11 330 11.8
2009-09-28 10:21:18 51°15.761 2°53.815 330.7 11 330 11.9
2009-09-28 10:21:23 51°15.774 2°53.803 330.8 11 331 11.9
2009-09-28 10:21:28 51°15.787 2°53.791 331.2 11 331 11.9
2009-09-28 10:21:33 51°15.801 2°53.779 331.2 11 330 12
2009-09-28 10:21:38 51°15.814 2°53.767 331 11 330 12
2009-09-28 10:21:43 51°15.828 2°53.755 331.1 11 331 12.1
2009-09-28 10:21:48 51°15.841 2°53.743 331.4 11 331 12.1
2009-09-28 10:21:53 51°15.854 2°53.731 331.5 11 331 12.2
2009-09-28 10:21:58 51°15.867 2°53.72 331.5 11 331 12.2
2009-09-28 10:22:03 51°15.881 2°53.708 331.6 11 331 12
2009-09-28 10:22:08 51°15.894 2°53.696 331.5 11 331 12.2
2009-09-28 10:22:13 51°15.908 2°53.684 331.2 11 331 11.7
2009-09-28 10:22:18 51°15.921 2°53.672 331.2 11 331 11.8
2009-09-28 10:22:23 51°15.934 2°53.66 331.2 11 331 12.1
2009-09-28 10:22:28 51°15.948 2°53.649 331.6 11 331 12.3
2009-09-28 10:22:33 51°15.961 2°53.637 331.6 11.1 331 12.3
2009-09-28 10:22:38 51°15.975 2°53.625 330.8 11 331 12.2
2009-09-28 10:22:43 51°15.988 2°53.613 330.3 11 330 12.3
2009-09-28 10:22:48 51°16.001 2°53.601 330.3 11 331 12.2
2009-09-28 10:22:53 51°16.015 2°53.589 330.8 11 331 12.2
2009-09-28 10:22:58 51°16.028 2°53.577 331.1 11 331 12.3
2009-09-28 10:23:03 51°16.041 2°53.565 330.9 11.1 331 12.4
2009-09-28 10:23:08 51°16.055 2°53.553 330.9 11 331 12.3
2009-09-28 10:23:13 51°16.068 2°53.541 331.1 11 331 12.3
2009-09-28 10:23:18 51°16.081 2°53.53 331.2 11 331 12.2
2009-09-28 10:23:23 51°16.095 2°53.518 331.2 11 331 12.4
2009-09-28 10:23:28 51°16.108 2°53.506 331.5 11 331 12.3
2009-09-28 10:23:32 51°16.119 2°53.497 331.7 11 331 12.4
2009-09-28 10:23:38 51°16.135 2°53.482 331.3 11 331 12.3
2009-09-28 10:23:43 51°16.149 2°53.471 331.1 11 331 12.3
2009-09-28 10:23:48 51°16.162 2°53.459 331.4 11 331 12.5
2009-09-28 10:23:53 51°16.176 2°53.447 331.7 11 331 12.4
2009-09-28 10:23:58 51°16.189 2°53.435 331.7 11 331 12.5
2009-09-28 10:24:03 51°16.203 2°53.424 331.5 11 331 12.5
2009-09-28 10:24:08 51°16.216 2°53.412 331.4 11.1 331 12.5
2009-09-28 10:24:13 51°16.23 2°53.4 331.4 11 331 12.5
2009-09-28 10:24:18 51°16.243 2°53.388 331.5 11 331 12.5
2009-09-28 10:24:23 51°16.257 2°53.376 331.6 11 331 12.7
2009-09-28 10:24:28 51°16.27 2°53.364 331.1 11.1 331 12.6
2009-09-28 10:24:33 51°16.284 2°53.353 331.4 11.1 331 12.6
2009-09-28 10:24:38 51°16.297 2°53.341 331.7 11.1 331 12.6
2009-09-28 10:24:43 51°16.311 2°53.329 331.5 11.1 331 12.7
2009-09-28 10:24:48 51°16.324 2°53.317 331.5 11.1 331 12.6
2009-09-28 10:24:53 51°16.338 2°53.306 331.5 11.1 331 12.6
2009-09-28 10:24:58 51°16.351 2°53.294 331.2 11.1 331 12.6
2009-09-28 10:25:03 51°16.364 2°53.282 331.3 11.1 331 12.5
2009-09-28 10:25:08 51°16.378 2°53.27 331.4 11.1 331 12.7
2009-09-28 10:25:13 51°16.391 2°53.258 331.2 11.1 331 12.5
2009-09-28 10:25:18 51°16.405 2°53.246 331.2 11.1 331 12.5
2009-09-28 10:25:23 51°16.418 2°53.234 331.1 11.1 331 12.5
2009-09-28 10:25:28 51°16.431 2°53.222 330.8 11.1 331 12.7
2009-09-28 10:25:33 51°16.445 2°53.211 331.1 11.1 331 12.6
2009-09-28 10:25:38 51°16.458 2°53.199 331.6 11.1 331 12.5
2009-09-28 10:25:43 51°16.472 2°53.187 331.3 11.1 330 12.5
2009-09-28 10:25:48 51°16.485 2°53.175 331.1 11.1 331 12.3
2009-09-28 10:25:53 51°16.498 2°53.163 331 11.1 331 12.5
2009-09-28 10:25:58 51°16.512 2°53.151 331 11.1 331 12.4
2009-09-28 10:26:03 51°16.525 2°53.139 330.8 11 330 12.3
2009-09-28 10:26:08 51°16.539 2°53.128 331.1 11 332 12.3
2009-09-28 10:26:12 51°16.549 2°53.118 331.4 11 331 12.3
2009-09-28 10:26:18 51°16.566 2°53.104 330.8 11 330 12.4
2009-09-28 10:26:23 51°16.579 2°53.091 330.1 11.1 330 12.4
2009-09-28 10:26:28 51°16.592 2°53.079 330 11 330 12.3
2009-09-28 10:26:33 51°16.605 2°53.068 330.2 11.1 331 12.3
2009-09-28 10:26:38 51°16.619 2°53.056 330.8 11.1 331 12.3
2009-09-28 10:26:43 51°16.632 2°53.044 331.1 11.1 331 12.1
2009-09-28 10:26:48 51°16.646 2°53.032 331.1 11.1 331 12.2
2009-09-28 10:26:53 51°16.659 2°53.021 331.3 11.1 332 12
2009-09-28 10:26:58 51°16.673 2°53.009 331.6 11.1 331 11.9
2009-09-28 10:27:03 51°16.686 2°52.997 331.6 11.1 331 12
2009-09-28 10:27:08 51°16.7 2°52.986 331.5 11.1 332 11.8
2009-09-28 10:27:13 51°16.714 2°52.974 331.7 11.1 332 11.7
2009-09-28 10:27:18 51°16.727 2°52.963 332 11.1 332 11.6
2009-09-28 10:27:23 51°16.741 2°52.952 332.2 11.1 332 11.4
2009-09-28 10:27:28 51°16.755 2°52.94 331.9 11.1 332 11.5
2009-09-28 10:27:33 51°16.768 2°52.929 331.8 11 332 11
2009-09-28 10:27:38 51°16.782 2°52.917 331.8 11 332 10.8
2009-09-28 10:27:43 51°16.795 2°52.905 331.3 11 331 10.3
2009-09-28 10:27:48 51°16.808 2°52.894 331.2 11 332 10.3
2009-09-28 10:27:53 51°16.822 2°52.882 331.4 11.1 331 10
2009-09-28 10:27:58 51°16.835 2°52.871 331.5 11 332 10
2009-09-28 10:28:03 51°16.848 2°52.859 331.5 11 331 10.1
2009-09-28 10:28:08 51°16.862 2°52.847 331.1 11 331 9.9
2009-09-28 10:28:13 51°16.875 2°52.835 331.1 11 331 9.8
2009-09-28 10:28:18 51°16.889 2°52.823 331.1 11.1 332 9.9
2009-09-28 10:28:23 51°16.902 2°52.812 331.2 11.1 332 9.9
2009-09-28 10:28:28 51°16.916 2°52.8 331.2 11.1 332 10.1
2009-09-28 10:28:33 51°16.929 2°52.788 331.3 11.1 332 10.1
2009-09-28 10:28:38 51°16.943 2°52.777 331.5 11.1 332 10.1
2009-09-28 10:28:43 51°16.957 2°52.765 331.5 11.2 332 10.2
2009-09-28 10:28:48 51°16.97 2°52.754 331.5 11.2 332 10.4
2009-09-28 10:28:53 51°16.984 2°52.742 331.4 11.2 332 10.3
2009-09-28 10:28:58 51°16.998 2°52.731 332.3 11.2 335 10.4
2009-09-28 10:29:03 51°17.012 2°52.721 334.5 11.2 335 10.6
2009-09-28 10:29:08 51°17.026 2°52.711 335.3 11.2 336 10.8
2009-09-28 10:29:13 51°17.04 2°52.701 335.9 11.2 337 11
2009-09-28 10:29:18 51°17.055 2°52.691 336.3 11.1 337 10.5
2009-09-28 10:29:23 51°17.069 2°52.682 336.8 11.1 337 10.7
2009-09-28 10:29:28 51°17.083 2°52.672 337.2 11.1 337 10.4
2009-09-28 10:29:33 51°17.097 2°52.663 337.7 11.1 338 10.3
2009-09-28 10:29:38 51°17.111 2°52.654 338.1 11.1 338 10.2
2009-09-28 10:29:43 51°17.125 2°52.645 338.3 11.1 338 10.1
2009-09-28 10:29:48 51°17.14 2°52.635 338.2 11.1 337 10.3
2009-09-28 10:29:53 51°17.154 2°52.626 338 11.1 339 10.4
2009-09-28 10:29:58 51°17.168 2°52.618 339 11.1 340 10.4
2009-09-28 10:30:03 51°17.183 2°52.609 339.3 11.2 340 10.4
2009-09-28 10:30:08 51°17.197 2°52.601 340 11.1 340 10.5
2009-09-28 10:30:13 51°17.212 2°52.592 340.4 11.2 340 10.6
2009-09-28 10:30:18 51°17.227 2°52.584 340.3 11.2 341 10.5
2009-09-28 10:30:23 51°17.241 2°52.577 340.7 11.2 343 10.5
2009-09-28 10:30:28 51°17.257 2°52.571 344.6 11.2 347 10.6
2009-09-28 10:30:32 51°17.269 2°52.567 346.5 11.1 347 10.7
2009-09-28 10:30:38 51°17.287 2°52.561 347.9 11.1 350 10.7
2009-09-28 10:30:43 51°17.302 2°52.557 349.9 11.1 351 10.8
2009-09-28 10:30:48 51°17.318 2°52.553 350.8 11.1 352 10.7
2009-09-28 10:30:53 51°17.333 2°52.551 352.2 11.1 354 10.8
2009-09-28 10:30:58 51°17.348 2°52.55 355.7 11.1 358 10.9
2009-09-28 10:31:03 51°17.364 2°52.549 357.7 11.1 357 10.8
2009-09-28 10:31:08 51°17.379 2°52.549 359.5 11.2 1 10.8
2009-09-28 10:31:13 51°17.394 2°52.549 0.5 11.1 -999 10.8
2009-09-28 10:31:18 51°17.41 2°52.55 1.4 11.3 3 10.8
2009-09-28 10:31:23 51°17.426 2°52.552 3 11.2 3 10.9
2009-09-28 10:31:28 51°17.441 2°52.553 3.7 11.2 3 11
2009-09-28 10:31:33 51°17.457 2°52.555 5.1 11.3 4 10.9
2009-09-28 10:31:38 51°17.472 2°52.556 5 11.3 4 10.9
2009-09-28 10:31:43 51°17.487 2°52.559 5.6 11.2 6 10.9
2009-09-28 10:31:48 51°17.503 2°52.561 5.9 11.3 5 11
2009-09-28 10:31:53 51°17.518 2°52.564 6.4 11.3 6 10.9
2009-09-28 10:31:58 51°17.534 2°52.566 6.7 11.2 6 10.9
2009-09-28 10:32:03 51°17.549 2°52.569 6.4 11.2 6 10.9
2009-09-28 10:32:08 51°17.565 2°52.571 6.6 11.3 5 11.1
2009-09-28 10:32:13 51°17.581 2°52.574 6.5 11.3 6 10.9
2009-09-28 10:32:18 51°17.596 2°52.576 6.2 11.3 6 10.9
2009-09-28 10:32:23 51°17.612 2°52.579 6.6 11.3 7 11.1
2009-09-28 10:32:28 51°17.627 2°52.582 7 11.3 6 10.9
2009-09-28 10:32:33 51°17.643 2°52.585 7.7 11.4 8 10.8
2009-09-28 10:32:38 51°17.659 2°52.588 8 11.4 6 10.9
2009-09-28 10:32:43 51°17.674 2°52.591 7.7 11.4 7 11
2009-09-28 10:32:48 51°17.69 2°52.594 7.4 11.4 7 11
2009-09-28 10:32:52 51°17.703 2°52.596 7.5 11.4 7 11.1
2009-09-28 10:32:58 51°17.721 2°52.6 7.8 11.4 6 10.7
2009-09-28 10:33:03 51°17.737 2°52.603 7.6 11.4 7 10.9
2009-09-28 10:33:08 51°17.753 2°52.605 7.7 11.4 6 10.9
2009-09-28 10:33:13 51°17.769 2°52.609 7.6 11.4 7 11.1
2009-09-28 10:33:18 51°17.784 2°52.611 7.8 11.4 6 11.1
2009-09-28 10:33:23 51°17.8 2°52.614 7.3 11.4 7 11.1
2009-09-28 10:33:28 51°17.816 2°52.617 7.1 11.4 6 10.8
2009-09-28 10:33:33 51°17.832 2°52.619 6.8 11.4 6 10.9
2009-09-28 10:33:38 51°17.847 2°52.622 6.6 11.4 5 10.9
2009-09-28 10:33:43 51°17.863 2°52.624 6.3 11.4 6 10.8
2009-09-28 10:33:48 51°17.879 2°52.626 6.6 11.4 5 11
2009-09-28 10:33:53 51°17.894 2°52.629 6.6 11.4 6 11.2
2009-09-28 10:33:58 51°17.91 2°52.631 6 11.4 4 11
2009-09-28 10:34:03 51°17.926 2°52.634 6 11.4 6 11.2
2009-09-28 10:34:08 51°17.942 2°52.636 6.2 11.4 4 11.1
2009-09-28 10:34:13 51°17.957 2°52.638 5.9 11.4 6 11.3
2009-09-28 10:34:18 51°17.973 2°52.641 6.2 11.4 5 11.1
2009-09-28 10:34:23 51°17.989 2°52.643 6.1 11.4 4 11.2
2009-09-28 10:34:28 51°18.005 2°52.645 5.9 11.4 5 11.2
2009-09-28 10:34:33 51°18.021 2°52.647 5.9 11.4 5 11.3
2009-09-28 10:34:38 51°18.036 2°52.649 5.6 11.4 4 11.2
2009-09-28 10:34:43 51°18.052 2°52.651 5.3 11.4 5 11.2
2009-09-28 10:34:48 51°18.068 2°52.653 5.3 11.4 4 11.4
2009-09-28 10:34:53 51°18.084 2°52.655 5.2 11.4 5 11
2009-09-28 10:34:58 51°18.099 2°52.656 5.2 11.4 4 11.2
2009-09-28 10:35:03 51°18.115 2°52.659 5.3 11.4 4 11.4
2009-09-28 10:35:08 51°18.131 2°52.661 5.2 11.4 4 11.2
2009-09-28 10:35:13 51°18.147 2°52.662 5.2 11.4 5 11.4
2009-09-28 10:35:18 51°18.163 2°52.664 5.3 11.5 5 11.4
2009-09-28 10:35:23 51°18.179 2°52.666 5.6 11.4 4 11.5
2009-09-28 10:35:28 51°18.194 2°52.668 5.2 11.4 4 11.5
2009-09-28 10:35:33 51°18.21 2°52.67 5.4 11.4 4 11.5
2009-09-28 10:35:38 51°18.226 2°52.672 5.4 11.5 4 11.5
2009-09-28 10:35:43 51°18.242 2°52.674 5.2 11.4 4 11.7
2009-09-28 10:35:48 51°18.258 2°52.675 4.7 11.4 4 11.4
2009-09-28 10:35:53 51°18.273 2°52.677 5.2 11.4 4 11.7
2009-09-28 10:35:58 51°18.289 2°52.678 4.8 11.4 4 11.7
2009-09-28 10:36:03 51°18.305 2°52.68 4.9 11.4 4 11.4
2009-09-28 10:36:08 51°18.321 2°52.681 4.6 11.4 3 11.6
2009-09-28 10:36:13 51°18.337 2°52.683 4.8 11.4 4 11.7
2009-09-28 10:36:18 51°18.353 2°52.684 4.6 11.4 3 11.6
2009-09-28 10:36:23 51°18.368 2°52.686 4.8 11.4 4 11.8
2009-09-28 10:36:28 51°18.384 2°52.688 4.9 11.4 3 12
2009-09-28 10:36:33 51°18.4 2°52.69 5 11.4 5 11.8
2009-09-28 10:36:38 51°18.416 2°52.691 5.3 11.4 3 11.7
2009-09-28 10:36:43 51°18.432 2°52.693 5.1 11.4 4 12
2009-09-28 10:36:48 51°18.447 2°52.694 4.9 11.4 3 11.8
2009-09-28 10:36:53 51°18.463 2°52.696 4.7 11.4 4 11.9
2009-09-28 10:36:58 51°18.479 2°52.698 4.7 11.4 4 11.9
2009-09-28 10:37:03 51°18.495 2°52.699 5.1 11.4 3 12
2009-09-28 10:37:08 51°18.511 2°52.7 4.8 11.4 3 11.9
2009-09-28 10:37:13 51°18.526 2°52.702 4.7 11.4 3 11.9
2009-09-28 10:37:18 51°18.542 2°52.703 4.4 11.4 3 11.9
2009-09-28 10:37:23 51°18.558 2°52.705 4.4 11.4 3 11.8
2009-09-28 10:37:28 51°18.574 2°52.707 4.5 11.4 4 11.8
2009-09-28 10:37:33 51°18.589 2°52.708 4.8 11.4 4 12
2009-09-28 10:37:38 51°18.605 2°52.71 4.9 11.4 4 12
2009-09-28 10:37:43 51°18.621 2°52.711 5.1 11.4 4 12.1
2009-09-28 10:37:48 51°18.637 2°52.713 5 11.4 3 12.1
2009-09-28 10:37:53 51°18.653 2°52.714 4.9 11.4 4 12.1
2009-09-28 10:37:58 51°18.668 2°52.716 4.7 11.3 3 12.1
2009-09-28 10:38:03 51°18.684 2°52.718 4.8 11.3 4 12.2
2009-09-28 10:38:08 51°18.699 2°52.719 4.9 11.4 4 12.2
2009-09-28 10:38:13 51°18.715 2°52.721 4.9 11.4 4 12.3
2009-09-28 10:38:18 51°18.731 2°52.722 4.9 11.4 3 12.2
2009-09-28 10:38:23 51°18.747 2°52.723 4.7 11.4 3 12.1
2009-09-28 10:38:28 51°18.763 2°52.725 4.6 11.3 3 12.3
2009-09-28 10:38:33 51°18.778 2°52.727 4.3 11.4 4 12.4
2009-09-28 10:38:38 51°18.794 2°52.728 4.6 11.4 3 12.4
2009-09-28 10:38:43 51°18.81 2°52.729 4.4 11.4 3 12.4
2009-09-28 10:38:48 51°18.825 2°52.73 3.9 11.3 2 12.4
2009-09-28 10:38:53 51°18.841 2°52.731 3.3 11.3 2 12.6
2009-09-28 10:38:58 51°18.856 2°52.733 3.3 11.3 4 12.7
2009-09-28 10:39:03 51°18.872 2°52.734 4 11.3 2 12.7
2009-09-28 10:39:08 51°18.888 2°52.735 3.8 11.3 3 12.6
2009-09-28 10:39:13 51°18.903 2°52.737 3.8 11.3 3 12.7
2009-09-28 10:39:18 51°18.919 2°52.738 4.4 11.4 4 12.8
2009-09-28 10:39:23 51°18.935 2°52.74 4.6 11.4 3 12.8
2009-09-28 10:39:28 51°18.951 2°52.741 4.6 11.4 4 12.9
2009-09-28 10:39:32 51°18.963 2°52.743 4.5 11.4 4 12.9
2009-09-28 10:39:38 51°18.982 2°52.745 4.6 11.4 4 13
2009-09-28 10:39:43 51°18.998 2°52.746 4.6 11.4 4 13
2009-09-28 10:39:48 51°19.013 2°52.748 4.5 11.4 3 13
2009-09-28 10:39:53 51°19.029 2°52.75 4.8 11.4 4 13.2
2009-09-28 10:39:58 51°19.045 2°52.751 4.9 11.4 4 13.2
2009-09-28 10:40:03 51°19.061 2°52.753 4.6 11.4 4 13.4
2009-09-28 10:40:08 51°19.077 2°52.754 4.5 11.4 3 13.4
2009-09-28 10:40:13 51°19.093 2°52.756 4.4 11.4 4 13.5
2009-09-28 10:40:18 51°19.108 2°52.758 4.5 11.4 4 13.4
2009-09-28 10:40:23 51°19.124 2°52.759 4.8 11.4 4 13.6
2009-09-28 10:40:28 51°19.14 2°52.761 4.5 11.4 3 13.5
2009-09-28 10:40:33 51°19.156 2°52.762 4.4 11.4 3 13.7
2009-09-28 10:40:38 51°19.172 2°52.764 4.1 11.4 4 13.8
2009-09-28 10:40:43 51°19.188 2°52.765 4.3 11.4 4 13.9
2009-09-28 10:40:48 51°19.203 2°52.767 4.5 11.5 3 13.8
2009-09-28 10:40:53 51°19.219 2°52.769 4.2 11.5 4 13.9
2009-09-28 10:40:58 51°19.235 2°52.77 4.4 11.4 3 13.9
2009-09-28 10:41:03 51°19.25 2°52.772 4.3 11.4 4 14
2009-09-28 10:41:08 51°19.266 2°52.774 4.3 11.4 3 14.1
2009-09-28 10:41:13 51°19.282 2°52.775 4.4 11.4 4 14.3
2009-09-28 10:41:18 51°19.298 2°52.777 4.3 11.4 3 14.3
2009-09-28 10:41:23 51°19.314 2°52.778 4.4 11.5 4 14.4
2009-09-28 10:41:28 51°19.329 2°52.78 4.5 11.4 4 14.4
2009-09-28 10:41:33 51°19.345 2°52.782 4.4 11.4 4 14.5
2009-09-28 10:41:38 51°19.361 2°52.783 4.4 11.4 4 14.5
2009-09-28 10:41:43 51°19.377 2°52.786 5.2 11.5 6 14.6
2009-09-28 10:41:48 51°19.393 2°52.788 5.9 11.4 5 14.8
2009-09-28 10:41:52 51°19.406 2°52.79 6 11.5 6 14.6
2009-09-28 10:41:58 51°19.424 2°52.793 6 11.4 5 14.9
2009-09-28 10:42:03 51°19.44 2°52.796 6 11.4 6 14.8
2009-09-28 10:42:08 51°19.456 2°52.799 6.7 11.4 6 15
2009-09-28 10:42:13 51°19.472 2°52.801 7.1 11.4 6 14.9
2009-09-28 10:42:18 51°19.487 2°52.804 6.3 11.3 5 15
2009-09-28 10:42:23 51°19.503 2°52.806 6.2 11.4 6 15.2
2009-09-28 10:42:28 51°19.518 2°52.809 5.9 11.3 6 15.2
2009-09-28 10:42:33 51°19.534 2°52.812 7 11.4 8 15.3
2009-09-28 10:42:38 51°19.55 2°52.816 8.2 11.4 8 15.3
2009-09-28 10:42:43 51°19.565 2°52.82 9.4 11.4 10 15.4
2009-09-28 10:42:48 51°19.581 2°52.824 10 11.4 10 15.3
2009-09-28 10:42:53 51°19.596 2°52.829 11 11.4 11 15.4
2009-09-28 10:42:58 51°19.612 2°52.834 11.6 11.4 11 15.5
2009-09-28 10:43:03 51°19.627 2°52.839 12.1 11.4 12 15.5
2009-09-28 10:43:08 51°19.643 2°52.844 12.9 11.4 12 15.7
2009-09-28 10:43:13 51°19.658 2°52.85 12.9 11.4 12 15.6
2009-09-28 10:43:18 51°19.674 2°52.855 13.2 11.5 12 15.8
2009-09-28 10:43:23 51°19.689 2°52.86 13.3 11.4 12 15.7
2009-09-28 10:43:28 51°19.705 2°52.866 13.2 11.4 12 15.8
2009-09-28 10:43:33 51°19.72 2°52.871 13.2 11.4 12 15.8
2009-09-28 10:43:38 51°19.736 2°52.877 13.2 11.5 12 16
2009-09-28 10:43:43 51°19.752 2°52.882 13.3 11.5 12 16
2009-09-28 10:43:48 51°19.767 2°52.888 13.3 11.5 12 16.1
2009-09-28 10:43:53 51°19.782 2°52.893 13.2 11.4 12 16
2009-09-28 10:43:58 51°19.798 2°52.899 13.1 11.4 12 16.1
2009-09-28 10:44:03 51°19.813 2°52.904 13.2 11.4 13 16.1
2009-09-28 10:44:08 51°19.829 2°52.91 13.2 11.4 13 16.4
2009-09-28 10:44:12 51°19.841 2°52.914 13.3 11.4 13 16.3
2009-09-28 10:44:18 51°19.86 2°52.921 13.2 11.4 12 16.4
2009-09-28 10:44:23 51°19.875 2°52.926 13.2 11.5 13 16.5
2009-09-28 10:44:28 51°19.89 2°52.932 13.3 11.4 12 16.3
2009-09-28 10:44:33 51°19.906 2°52.937 13 11.4 12 16.4
2009-09-28 10:44:38 51°19.921 2°52.942 13 11.5 12 16.5
2009-09-28 10:44:43 51°19.937 2°52.947 12.6 11.4 12 16.5
2009-09-28 10:44:48 51°19.953 2°52.953 12.8 11.5 13 16.5
2009-09-28 10:44:53 51°19.968 2°52.958 13.2 11.5 12 16.5
2009-09-28 10:44:58 51°19.984 2°52.964 12.9 11.5 12 16.4
2009-09-28 10:45:03 51°19.999 2°52.969 12.6 11.5 12 16.5
2009-09-28 10:45:08 51°20.015 2°52.974 12.8 11.4 12 16.5
2009-09-28 10:45:13 51°20.03 2°52.98 13.2 11.5 13 16.6
2009-09-28 10:45:18 51°20.046 2°52.986 12.9 11.4 12 16.5
2009-09-28 10:45:23 51°20.061 2°52.991 12.7 11.4 12 16.5
2009-09-28 10:45:28 51°20.077 2°52.997 13.1 11.5 13 16.6
2009-09-28 10:45:33 51°20.092 2°53.002 13.2 11.5 12 16.6
2009-09-28 10:45:38 51°20.108 2°53.007 12.9 11.4 13 16.6
2009-09-28 10:45:43 51°20.123 2°53.013 12.9 11.4 12 16.6
2009-09-28 10:45:48 51°20.139 2°53.018 12.6 11.4 12 16.6
2009-09-28 10:45:53 51°20.154 2°53.023 12.6 11.4 12 16.6
2009-09-28 10:45:58 51°20.17 2°53.028 12.6 11.4 12 16.7
2009-09-28 10:46:03 51°20.185 2°53.034 12.6 11.4 12 16.6
2009-09-28 10:46:08 51°20.201 2°53.039 12.4 11.4 12 16.7
2009-09-28 10:46:13 51°20.216 2°53.044 12.8 11.4 12 16.8
2009-09-28 10:46:18 51°20.231 2°53.049 12.7 11.4 12 16.8
2009-09-28 10:46:23 51°20.247 2°53.054 12.4 11.4 12 16.7
2009-09-28 10:46:28 51°20.262 2°53.06 12.6 11.4 12 16.7
2009-09-28 10:46:33 51°20.278 2°53.065 12.9 11.4 12 16.7
2009-09-28 10:46:38 51°20.293 2°53.07 12.5 11.4 11 16.7
2009-09-28 10:46:43 51°20.309 2°53.075 12.4 11.4 12 16.7
2009-09-28 10:46:48 51°20.324 2°53.081 12.5 11.4 12 16.6
2009-09-28 10:46:53 51°20.34 2°53.086 12.5 11.4 12 16.7
2009-09-28 10:46:58 51°20.355 2°53.091 13.1 11.4 12 16.7
2009-09-28 10:47:03 51°20.371 2°53.096 12.7 11.4 12 16.8
2009-09-28 10:47:08 51°20.386 2°53.101 12.4 11.4 11 16.7
2009-09-28 10:47:13 51°20.402 2°53.106 12.1 11.4 12 16.7
2009-09-28 10:47:18 51°20.417 2°53.112 12.4 11.4 11 16.8
2009-09-28 10:47:23 51°20.433 2°53.117 12.4 11.4 12 16.7
2009-09-28 10:47:28 51°20.448 2°53.122 12.5 11.4 12 16.9
2009-09-28 10:47:33 51°20.464 2°53.127 12.7 11.4 12 16.9
2009-09-28 10:47:38 51°20.479 2°53.132 12.5 11.4 11 16.8
2009-09-28 10:47:43 51°20.494 2°53.137 12.4 11.4 12 16.8
2009-09-28 10:47:48 51°20.51 2°53.142 12.4 11.4 12 16.8
2009-09-28 10:47:53 51°20.526 2°53.147 12.2 11.4 11 16.9
2009-09-28 10:47:58 51°20.541 2°53.153 12.8 11.4 12 17
2009-09-28 10:48:03 51°20.556 2°53.157 12.6 11.4 11 16.9
2009-09-28 10:48:08 51°20.572 2°53.162 12.3 11.4 12 16.8
2009-09-28 10:48:13 51°20.587 2°53.167 12.6 11.4 11 16.9
2009-09-28 10:48:18 51°20.603 2°53.173 12.4 11.4 12 16.9
2009-09-28 10:48:23 51°20.618 2°53.178 12.5 11.3 12 16.8
2009-09-28 10:48:28 51°20.634 2°53.183 12.4 11.3 12 16.8
2009-09-28 10:48:33 51°20.649 2°53.188 12.5 11.3 12 16.8
2009-09-28 10:48:38 51°20.664 2°53.193 12.5 11.4 12 17
2009-09-28 10:48:43 51°20.68 2°53.198 12.6 11.4 12 16.9
2009-09-28 10:48:48 51°20.695 2°53.203 12.7 11.4 12 16.8
2009-09-28 10:48:53 51°20.711 2°53.208 12.6 11.4 11 16.9
2009-09-28 10:48:58 51°20.726 2°53.213 12.4 11.4 11 16.8
2009-09-28 10:49:03 51°20.742 2°53.218 12.3 11.3 10 16.8
2009-09-28 10:49:08 51°20.757 2°53.222 11.3 11.3 10 16.9
2009-09-28 10:49:13 51°20.773 2°53.226 10.8 11.3 9 16.8
2009-09-28 10:49:18 51°20.788 2°53.231 10.5 11.3 9 16.9
2009-09-28 10:49:23 51°20.804 2°53.234 10 11.3 8 16.8
2009-09-28 10:49:28 51°20.819 2°53.238 9.5 11.3 8 16.8
2009-09-28 10:49:33 51°20.835 2°53.241 9.3 11.3 8 17
2009-09-28 10:49:38 51°20.85 2°53.245 9 11.3 8 16.7
2009-09-28 10:49:43 51°20.865 2°53.248 8.9 11.2 8 16.9
2009-09-28 10:49:48 51°20.881 2°53.252 8.9 11.3 8 16.9
2009-09-28 10:49:53 51°20.897 2°53.255 8.8 11.3 8 16.8
2009-09-28 10:49:58 51°20.912 2°53.259 9.1 11.3 8 17
2009-09-28 10:50:03 51°20.928 2°53.262 9.1 11.3 7 16.9
2009-09-28 10:50:08 51°20.943 2°53.266 8.9 11.3 8 16.9
2009-09-28 10:50:13 51°20.959 2°53.269 8.8 11.3 8 16.8
2009-09-28 10:50:18 51°20.974 2°53.273 8.8 11.3 8 16.8
2009-09-28 10:50:23 51°20.99 2°53.276 9.1 11.3 8 16.7
2009-09-28 10:50:28 51°21.005 2°53.28 9.5 11.3 8 16.6
2009-09-28 10:50:33 51°21.021 2°53.283 9.1 11.3 7 16.7
2009-09-28 10:50:38 51°21.036 2°53.287 9.4 11.3 8 16.5
2009-09-28 10:50:43 51°21.052 2°53.29 9.1 11.3 8 16.4
2009-09-28 10:50:48 51°21.068 2°53.294 9 11.4 8 16.6
2009-09-28 10:50:53 51°21.083 2°53.297 9.2 11.3 8 16.5
2009-09-28 10:50:58 51°21.099 2°53.301 9.5 11.3 8 16.3
2009-09-28 10:51:03 51°21.114 2°53.304 9.1 11.3 8 16.6
2009-09-28 10:51:08 51°21.13 2°53.307 8.9 11.4 7 16.7
2009-09-28 10:51:13 51°21.145 2°53.311 8.8 11.4 7 16.6
2009-09-28 10:51:18 51°21.161 2°53.314 8.8 11.4 8 16.2
2009-09-28 10:51:23 51°21.177 2°53.318 9.1 11.4 8 16.5
2009-09-28 10:51:28 51°21.192 2°53.321 9.3 11.4 8 16.4
2009-09-28 10:51:32 51°21.205 2°53.324 9.2 11.4 8 16.3
2009-09-28 10:51:38 51°21.223 2°53.328 9.5 11.4 9 16.2
2009-09-28 10:51:43 51°21.239 2°53.332 9.8 11.4 8 16.2
2009-09-28 10:51:48 51°21.255 2°53.336 9.8 11.4 8 15.9
2009-09-28 10:51:53 51°21.27 2°53.339 9.5 11.4 8 15.6
2009-09-28 10:51:58 51°21.286 2°53.342 9.2 11.4 8 16.2
2009-09-28 10:52:03 51°21.302 2°53.346 9.2 11.4 8 16.4
2009-09-28 10:52:08 51°21.317 2°53.349 9.4 11.4 8 16.3
2009-09-28 10:52:13 51°21.333 2°53.352 9.3 11.3 8 16.4
2009-09-28 10:52:18 51°21.348 2°53.355 9.5 11.3 8 16.3
2009-09-28 10:52:23 51°21.364 2°53.359 9.6 11.4 7 16.1
2009-09-28 10:52:28 51°21.38 2°53.362 9.5 11.3 8 16.4
2009-09-28 10:52:33 51°21.395 2°53.366 9.1 11.3 7 16.2
2009-09-28 10:52:38 51°21.411 2°53.368 8.4 11.3 6 16
2009-09-28 10:52:43 51°21.426 2°53.371 7.8 11.3 7 16.1
2009-09-28 10:52:48 51°21.442 2°53.373 7.5 11.3 5 16.2
2009-09-28 10:52:52 51°21.454 2°53.376 7.3 11.3 7 16.4
2009-09-28 10:52:58 51°21.473 2°53.379 7.9 11.3 6 16.6
2009-09-28 10:53:03 51°21.489 2°53.382 8.2 11.3 7 16.6
2009-09-28 10:53:08 51°21.504 2°53.386 8.8 11.3 8 16.6
2009-09-28 10:53:13 51°21.52 2°53.389 9.1 11.3 8 16.5
2009-09-28 10:53:18 51°21.535 2°53.392 9.5 11.3 8 16.8
2009-09-28 10:53:23 51°21.551 2°53.396 9.7 11.3 8 16.8
2009-09-28 10:53:28 51°21.567 2°53.399 9.4 11.3 8 16.9
2009-09-28 10:53:33 51°21.582 2°53.403 9.6 11.3 8 17
2009-09-28 10:53:38 51°21.598 2°53.406 9.3 11.3 8 16.9
2009-09-28 10:53:43 51°21.613 2°53.409 9.7 11.3 8 16.9
2009-09-28 10:53:48 51°21.629 2°53.412 9.5 11.3 7 17.1
2009-09-28 10:53:53 51°21.644 2°53.416 9.4 11.3 9 17.2
2009-09-28 10:53:58 51°21.66 2°53.419 9.8 11.3 8 17.3
2009-09-28 10:54:03 51°21.675 2°53.423 9.4 11.3 7 17.3
2009-09-28 10:54:08 51°21.691 2°53.426 9.4 11.3 8 17.4
2009-09-28 10:54:12 51°21.703 2°53.429 9.5 11.3 7 17.7
2009-09-28 10:54:18 51°21.722 2°53.433 9.2 11.3 8 17.6
2009-09-28 10:54:23 51°21.738 2°53.436 9.4 11.3 7 17.7
2009-09-28 10:54:28 51°21.753 2°53.439 9 11.3 7 18.1
2009-09-28 10:54:33 51°21.769 2°53.442 9.3 11.3 8 18.2
2009-09-28 10:54:38 51°21.784 2°53.446 9.3 11.4 7 18.3
2009-09-28 10:54:43 51°21.8 2°53.449 9.3 11.3 8 18.4
2009-09-28 10:54:48 51°21.815 2°53.452 9.5 11.3 8 18.6
2009-09-28 10:54:53 51°21.831 2°53.456 9.5 11.3 8 18.8
2009-09-28 10:54:58 51°21.847 2°53.459 9.6 11.3 7 19
2009-09-28 10:55:03 51°21.862 2°53.462 9.5 11.3 7 19.1
2009-09-28 10:55:08 51°21.878 2°53.465 9.1 11.3 7 19.2
2009-09-28 10:55:13 51°21.893 2°53.469 9.5 11.3 8 19.3
2009-09-28 10:55:18 51°21.909 2°53.472 9.2 11.3 7 19.3
2009-09-28 10:55:23 51°21.925 2°53.475 9.3 11.4 8 19.4
2009-09-28 10:55:28 51°21.94 2°53.478 9.4 11.3 6 19.6
2009-09-28 10:55:33 51°21.956 2°53.481 8.6 11.3 7 19.8
2009-09-28 10:55:38 51°21.972 2°53.482 8.1 11.3 6 20
2009-09-28 10:55:43 51°21.989 2°53.485 7.8 11.3 6 19.8
2009-09-28 10:55:48 51°22.004 2°53.487 7.7 11.3 6 20
2009-09-28 10:55:53 51°22.019 2°53.49 7.7 11.3 6 19.8
2009-09-28 10:55:58 51°22.035 2°53.493 7.8 11.3 6 19.9
2009-09-28 10:56:03 51°22.05 2°53.496 8.1 11.3 7 20.2
2009-09-28 10:56:08 51°22.065 2°53.499 8.8 11.3 7 20.2
2009-09-28 10:56:13 51°22.081 2°53.503 9.4 11.3 8 20.4
2009-09-28 10:56:18 51°22.096 2°53.506 9.8 11.4 7 20.6
2009-09-28 10:56:23 51°22.112 2°53.509 9.7 11.3 8 20.7
2009-09-28 10:56:28 51°22.127 2°53.513 9.8 11.3 7 20.7
2009-09-28 10:56:33 51°22.142 2°53.516 9.7 11.3 9 21.1
2009-09-28 10:56:38 51°22.158 2°53.521 10.3 11.3 9 21.4
2009-09-28 10:56:43 51°22.173 2°53.524 10.2 11.3 9 21.3
2009-09-28 10:56:48 51°22.189 2°53.528 10.1 11.3 8 21.5
2009-09-28 10:56:53 51°22.204 2°53.532 9.7 11.3 8 21.5
2009-09-28 10:56:58 51°22.22 2°53.535 9.5 11.3 8 21.8
2009-09-28 10:57:03 51°22.235 2°53.539 9.5 11.3 9 21.9
2009-09-28 10:57:08 51°22.251 2°53.543 9.6 11.3 8 21.8
2009-09-28 10:57:13 51°22.266 2°53.545 8.8 11.4 7 22
2009-09-28 10:57:18 51°22.282 2°53.549 9.1 11.4 8 22.1
2009-09-28 10:57:23 51°22.298 2°53.553 9.4 11.4 8 22.3
2009-09-28 10:57:28 51°22.313 2°53.556 9.4 11.4 8 22.2
2009-09-28 10:57:33 51°22.329 2°53.56 9.4 11.4 8 22.4
2009-09-28 10:57:38 51°22.345 2°53.563 9.3 11.4 9 22.3
2009-09-28 10:57:43 51°22.36 2°53.567 10 11.4 8 22.6
2009-09-28 10:57:48 51°22.376 2°53.57 8.8 11.4 7 22.5
2009-09-28 10:57:52 51°22.389 2°53.573 8.8 11.3 8 22.7
2009-09-28 10:57:58 51°22.407 2°53.577 9.5 11.4 9 22.8
2009-09-28 10:58:03 51°22.423 2°53.581 9.5 11.3 8 22.7
2009-09-28 10:58:08 51°22.439 2°53.584 9.4 11.3 9 22.6
2009-09-28 10:58:13 51°22.454 2°53.588 9.9 11.3 9 22.8
2009-09-28 10:58:18 51°22.47 2°53.592 9.7 11.3 9 23
2009-09-28 10:58:23 51°22.485 2°53.596 9.6 11.4 8 23.4
2009-09-28 10:58:28 51°22.501 2°53.599 9.2 11.3 8 23.4
2009-09-28 10:58:33 51°22.516 2°53.602 9.2 11.3 8 23.6
2009-09-28 10:58:38 51°22.532 2°53.606 9.7 11.3 9 23.4
2009-09-28 10:58:43 51°22.547 2°53.61 9.6 11.3 8 22.9
2009-09-28 10:58:48 51°22.563 2°53.613 9.6 11.3 8 22.8
2009-09-28 10:58:53 51°22.578 2°53.617 9.7 11.3 9 22.9
2009-09-28 10:58:58 51°22.594 2°53.621 9.7 11.3 9 22.9
2009-09-28 10:59:03 51°22.609 2°53.625 9.9 11.3 8 22.9
2009-09-28 10:59:08 51°22.625 2°53.628 9.5 11.3 8 23.1
2009-09-28 10:59:12 51°22.637 2°53.631 8.8 11.4 8 23
2009-09-28 10:59:18 51°22.656 2°53.635 8.4 11.4 7 22.8
2009-09-28 10:59:23 51°22.672 2°53.638 7.8 11.3 7 23
2009-09-28 10:59:28 51°22.687 2°53.641 7.6 11.4 8 22.7
2009-09-28 10:59:33 51°22.703 2°53.645 8.2 11.3 8 22.7
2009-09-28 10:59:38 51°22.718 2°53.648 8.9 11.4 8 22.5
2009-09-28 10:59:43 51°22.734 2°53.652 8.9 11.3 8 22.8
2009-09-28 10:59:48 51°22.749 2°53.655 8.8 11.4 8 23
2009-09-28 10:59:53 51°22.765 2°53.659 9.2 11.4 9 23.1
2009-09-28 11:00:03 51°22.796 2°53.667 9.4 11.4 9 23.1
2009-09-28 11:00:08 51°22.812 2°53.67 9.4 11.4 9 23
2009-09-28 11:00:13 51°22.827 2°53.674 8.9 11.4 8 22.5
2009-09-28 11:00:18 51°22.843 2°53.677 8.8 11.4 8 22.3
2009-09-28 11:00:23 51°22.859 2°53.681 9.1 11.4 9 22.2
2009-09-28 11:00:23 51°22.859 2°53.681 9.1 11.4 9 22.2
2009-09-28 11:00:32 51°22.887 2°53.688 9.6 11.4 8 21.7
2009-09-28 11:00:38 51°22.906 2°53.692 9.2 11.3 8 21.8
2009-09-28 11:00:43 51°22.921 2°53.696 8.6 11.4 8 21.6
2009-09-28 11:00:48 51°22.937 2°53.699 8.5 11.4 7 20.7
2009-09-28 11:01:02 51°22.981 2°53.709 9.3 11.4 8 20.6
2009-09-28 11:01:07 51°22.997 2°53.713 9.3 11.3 8 19
2009-09-28 11:01:12 51°23.012 2°53.716 8.8 11.3 8 19.2
2009-09-28 11:01:15 51°23.022 2°53.719 8.9 11.4 9 21.5
2009-09-28 11:01:22 51°23.043 2°53.724 9.5 11.4 9 21.7
2009-09-28 11:01:27 51°23.059 2°53.728 9.6 11.4 9 20.9
2009-09-28 11:01:32 51°23.074 2°53.732 9.5 11.4 9 20.3
2009-09-28 11:01:37 51°23.09 2°53.736 9.1 11.4 8 21.4
2009-09-28 11:01:42 51°23.106 2°53.739 8.4 11.4 8 21.3
2009-09-28 11:01:47 51°23.121 2°53.742 8.1 11.3 7 21
2009-09-28 11:01:52 51°23.137 2°53.745 7.7 11.4 7 20.8
2009-09-28 11:01:57 51°23.153 2°53.748 8.1 11.4 8 21.4
2009-09-28 11:02:02 51°23.168 2°53.751 8.3 11.4 8 21.9
2009-09-28 11:02:07 51°23.184 2°53.755 9 11.4 8 21.3
2009-09-28 11:02:12 51°23.199 2°53.759 9.2 11.4 8 20.8
2009-09-28 11:02:17 51°23.215 2°53.763 9.7 11.4 10 21.7
2009-09-28 11:02:22 51°23.231 2°53.766 9.7 11.4 8 21.4
2009-09-28 11:02:27 51°23.246 2°53.771 9.6 11.4 9 21.1
2009-09-28 11:02:32 51°23.262 2°53.775 10 11.4 10 21.1
2009-09-28 11:02:37 51°23.278 2°53.778 10.1 11.4 9 20.9
2009-09-28 11:02:42 51°23.293 2°53.782 9.9 11.4 9 20.4
2009-09-28 11:02:47 51°23.309 2°53.786 10 11.4 8 20.1
2009-09-28 11:02:52 51°23.325 2°53.79 9.2 11.4 8 20.1
2009-09-28 11:02:57 51°23.34 2°53.793 8.7 11.4 8 20.7
2009-09-28 11:03:02 51°23.356 2°53.797 8.5 11.4 7 20.3
2009-09-28 11:03:07 51°23.372 2°53.8 8.4 11.5 9 20.2
2009-09-28 11:03:12 51°23.388 2°53.804 9.1 11.4 8 19.5
2009-09-28 11:03:17 51°23.403 2°53.808 9.4 11.4 9 20.2
2009-09-28 11:03:22 51°23.419 2°53.812 9.5 11.4 9 21.1
2009-09-28 11:03:27 51°23.434 2°53.816 9.7 11.5 9 21
2009-09-28 11:03:32 51°23.45 2°53.82 9.8 11.5 9 21
2009-09-28 11:03:37 51°23.466 2°53.824 9.9 11.5 9 20.8
2009-09-28 11:03:42 51°23.482 2°53.828 9.9 11.5 8 20.7
2009-09-28 11:03:47 51°23.497 2°53.832 9.8 11.5 9 20.5
2009-09-28 11:03:52 51°23.513 2°53.835 9.9 11.5 9 20.3
2009-09-28 11:03:57 51°23.529 2°53.839 9.9 11.5 9 20
2009-09-28 11:04:02 51°23.545 2°53.843 9.7 11.5 8 18.8
2009-09-28 11:04:07 51°23.56 2°53.846 9.5 11.4 8 19.5
2009-09-28 11:04:12 51°23.576 2°53.85 9.3 11.5 9 20.3
2009-09-28 11:04:17 51°23.592 2°53.854 9.5 11.4 8 20.9
2009-09-28 11:04:22 51°23.608 2°53.857 9.3 11.4 9 20.9
2009-09-28 11:04:27 51°23.624 2°53.861 9.8 11.4 8 20.7
2009-09-28 11:04:32 51°23.64 2°53.865 10 11.4 9 20.6
2009-09-28 11:04:37 51°23.655 2°53.868 10.1 11.4 8 20.2
2009-09-28 11:04:42 51°23.671 2°53.872 10.2 11.5 9 19.9
2009-09-28 11:04:47 51°23.687 2°53.876 9.9 11.5 7 19.8
2009-09-28 11:04:52 51°23.702 2°53.88 9.7 11.5 9 20.8
2009-09-28 11:04:57 51°23.718 2°53.883 10 11.5 8 20.9
2009-09-28 11:05:02 51°23.733 2°53.887 9.7 11.5 9 20.7
2009-09-28 11:05:07 51°23.749 2°53.891 10.1 11.5 9 20.5
2009-09-28 11:05:12 51°23.765 2°53.895 9.9 11.4 8 20.4
2009-09-28 11:05:17 51°23.781 2°53.898 9.5 11.4 8 20.2
2009-09-28 11:05:22 51°23.796 2°53.9 8.1 11.4 5 20.2
2009-09-28 11:05:27 51°23.812 2°53.903 6.7 11.4 6 19.9
2009-09-28 11:05:32 51°23.828 2°53.904 6.1 11.4 3 19.8
2009-09-28 11:05:36 51°23.84 2°53.905 4.7 11.4 3 19.7
2009-09-28 11:05:42 51°23.859 2°53.907 4.2 11.4 2 19.6
2009-09-28 11:05:47 51°23.875 2°53.907 3.7 11.4 2 19.3
2009-09-28 11:05:52 51°23.891 2°53.908 3 11.4 1 20.2
2009-09-28 11:05:57 51°23.906 2°53.908 2.4 11.4 1 21.6
2009-09-28 11:06:02 51°23.922 2°53.909 2.1 11.4 1 21.9
2009-09-28 11:06:07 51°23.938 2°53.909 2.1 11.4 -999 21.8
2009-09-28 11:06:12 51°23.954 2°53.909 1.7 11.4 -999 22
2009-09-28 11:06:17 51°23.969 2°53.91 1.7 11.4 1 21.9
2009-09-28 11:06:22 51°23.985 2°53.91 1.5 11.4 -999 22
2009-09-28 11:06:27 51°24.001 2°53.91 1.5 11.4 -999 22.1
2009-09-28 11:06:32 51°24.017 2°53.91 1.6 11.4 -999 22
2009-09-28 11:06:37 51°24.033 2°53.91 1.6 11.4 -999 22
2009-09-28 11:06:42 51°24.048 2°53.91 1.2 11.4 1 22
2009-09-28 11:06:47 51°24.064 2°53.91 1.5 11.4 1 21.6
2009-09-28 11:06:52 51°24.081 2°53.91 1.9 11.4 1 20.5
2009-09-28 11:06:57 51°24.097 2°53.911 2.2 11.4 1 22
2009-09-28 11:07:02 51°24.113 2°53.91 2 11.4 -999 22.2
2009-09-28 11:07:07 51°24.129 2°53.911 1.7 11.4 1 22.2
2009-09-28 11:07:12 51°24.145 2°53.91 1.8 11.4 1 21.9
2009-09-28 11:07:17 51°24.161 2°53.911 2.3 11.4 -999 21.5
2009-09-28 11:07:22 51°24.177 2°53.911 1.7 11.3 -999 20.7
2009-09-28 11:07:27 51°24.193 2°53.911 0.8 11.4 -999 20.6
2009-09-28 11:07:32 51°24.208 2°53.911 1.2 11.4 1 21.5
2009-09-28 11:07:37 51°24.224 2°53.911 1.6 11.4 -999 21.7
2009-09-28 11:07:42 51°24.24 2°53.911 1.5 11.4 -999 21.2
2009-09-28 11:07:47 51°24.255 2°53.912 1.5 11.4 -999 21
2009-09-28 11:07:52 51°24.271 2°53.912 1.5 11.4 1 20.9
2009-09-28 11:07:57 51°24.287 2°53.912 1.9 11.4 1 20.4
2009-09-28 11:08:02 51°24.303 2°53.913 2 11.4 -999 18.9
2009-09-28 11:08:07 51°24.318 2°53.913 1.7 11.4 -999 19.4
2009-09-28 11:08:12 51°24.335 2°53.912 1.1 11.4 359 19.5
2009-09-28 11:08:17 51°24.351 2°53.911 0.6 11.4 359 19.7
2009-09-28 11:08:22 51°24.367 2°53.912 0.8 11.4 -999 19.3
2009-09-28 11:08:27 51°24.382 2°53.912 1.4 11.4 -999 18.5
2009-09-28 11:08:32 51°24.398 2°53.912 1.9 11.4 -999 18.1
2009-09-28 11:08:37 51°24.414 2°53.912 1.5 11.4 -999 16.4
2009-09-28 11:08:42 51°24.43 2°53.912 0.8 11.4 -999 17.3
2009-09-28 11:08:47 51°24.446 2°53.913 2.8 11.4 3 17.8
2009-09-28 11:08:52 51°24.461 2°53.914 3.6 11.4 2 18
2009-09-28 11:08:57 51°24.477 2°53.915 3.9 11.4 2 18.1
2009-09-28 11:09:02 51°24.493 2°53.917 4.8 11.4 4 18.1
2009-09-28 11:09:07 51°24.509 2°53.919 5.5 11.5 4 18
2009-09-28 11:09:12 51°24.525 2°53.921 6 11.5 4 16.6
2009-09-28 11:09:17 51°24.54 2°53.923 5.9 11.4 4 15.7
2009-09-28 11:09:22 51°24.555 2°53.926 6.3 11.4 5 15.9
2009-09-28 11:09:27 51°24.57 2°53.929 7.1 11.4 5 17.2
2009-09-28 11:09:32 51°24.586 2°53.931 7.1 11.4 6 17.4
2009-09-28 11:09:37 51°24.602 2°53.933 6.9 11.4 4 17.9
2009-09-28 11:09:42 51°24.618 2°53.936 6.8 11.5 5 18.2
2009-09-28 11:09:47 51°24.633 2°53.938 6.8 11.5 4 17.9
2009-09-28 11:09:52 51°24.649 2°53.94 6.5 11.5 5 18.1
2009-09-28 11:09:57 51°24.665 2°53.942 6.5 11.5 4 18
2009-09-28 11:10:02 51°24.681 2°53.944 6.2 11.5 6 18.1
2009-09-28 11:10:07 51°24.697 2°53.946 6.3 11.5 4 18.2
2009-09-28 11:10:12 51°24.713 2°53.948 5.9 11.5 5 18.2
2009-09-28 11:10:17 51°24.729 2°53.95 6.3 11.5 5 18.3
2009-09-28 11:10:22 51°24.745 2°53.952 6.1 11.5 4 18.6
2009-09-28 11:10:27 51°24.76 2°53.955 6.6 11.5 7 18.2
2009-09-28 11:10:32 51°24.776 2°53.958 7.3 11.5 5 15.9
2009-09-28 11:10:37 51°24.792 2°53.961 7.6 11.5 7 17.4
2009-09-28 11:10:42 51°24.808 2°53.964 8 11.5 7 18.5
2009-09-28 11:10:47 51°24.824 2°53.967 8.6 11.6 8 19.3
2009-09-28 11:10:52 51°24.839 2°53.971 9 11.5 7 19.6
2009-09-28 11:10:57 51°24.855 2°53.975 8.8 11.6 8 20
2009-09-28 11:11:02 51°24.871 2°53.977 8.1 11.6 7 20
2009-09-28 11:11:07 51°24.887 2°53.981 8.2 11.6 8 20.2
2009-09-28 11:11:12 51°24.903 2°53.985 8.5 11.6 8 20.5
2009-09-28 11:11:17 51°24.919 2°53.987 7.7 11.6 6 20.6
2009-09-28 11:11:22 51°24.935 2°53.991 7.3 11.6 7 20.6
2009-09-28 11:11:27 51°24.951 2°53.993 7.1 11.6 6 20.5
2009-09-28 11:11:32 51°24.967 2°53.996 6.7 11.6 6 19.3
2009-09-28 11:11:37 51°24.983 2°53.999 6.6 11.6 7 20.4
2009-09-28 11:11:42 51°24.999 2°54.002 7.2 11.6 7 20.9
2009-09-28 11:11:47 51°25.014 2°54.005 7.6 11.6 7 20.9
2009-09-28 11:11:52 51°25.031 2°54.008 7.8 11.6 7 19.7
2009-09-28 11:11:57 51°25.046 2°54.012 7.9 11.6 7 20.3
2009-09-28 11:12:02 51°25.062 2°54.015 7.7 11.6 7 20.4
2009-09-28 11:12:07 51°25.078 2°54.018 7.3 11.6 6 21
2009-09-28 11:12:12 51°25.095 2°54.021 7.5 11.6 8 21.6
2009-09-28 11:12:17 51°25.111 2°54.024 8.1 11.6 7 21.9
2009-09-28 11:12:22 51°25.127 2°54.027 8.1 11.6 7 22.1
2009-09-28 11:12:27 51°25.143 2°54.031 8.1 11.6 7 22
2009-09-28 11:12:32 51°25.159 2°54.034 7.8 11.6 7 22.1
2009-09-28 11:12:36 51°25.172 2°54.037 8 11.6 7 22.3
2009-09-28 11:12:42 51°25.191 2°54.041 7.5 11.6 7 22.3
2009-09-28 11:12:47 51°25.207 2°54.044 7.5 11.6 8 22
2009-09-28 11:12:52 51°25.223 2°54.047 8 11.6 7 21.8
2009-09-28 11:12:57 51°25.239 2°54.05 7.8 11.5 7 21.1
2009-09-28 11:13:02 51°25.254 2°54.053 7.3 11.6 7 21.6
2009-09-28 11:13:07 51°25.27 2°54.056 7.3 11.5 7 21.5
2009-09-28 11:13:12 51°25.286 2°54.059 6.8 11.5 6 21.6
2009-09-28 11:13:17 51°25.302 2°54.062 7.1 11.5 8 21.8
2009-09-28 11:13:22 51°25.318 2°54.065 7.7 11.5 7 21.5
2009-09-28 11:13:27 51°25.334 2°54.068 7.5 11.5 7 21.5
2009-09-28 11:13:32 51°25.35 2°54.071 7.1 11.5 6 21
2009-09-28 11:13:37 51°25.365 2°54.074 6.9 11.5 7 20.2
2009-09-28 11:13:42 51°25.381 2°54.078 7.5 11.5 7 20.3
2009-09-28 11:13:47 51°25.397 2°54.081 8.2 11.5 7 20.7
2009-09-28 11:13:52 51°25.413 2°54.084 8.1 11.4 8 20.8
2009-09-28 11:13:57 51°25.428 2°54.088 8.3 11.5 8 21
2009-09-28 11:14:02 51°25.444 2°54.091 8.7 11.5 8 21
2009-09-28 11:14:07 51°25.46 2°54.094 8.3 11.4 8 20.6
2009-09-28 11:14:12 51°25.476 2°54.098 8.2 11.4 7 19.8
2009-09-28 11:14:17 51°25.492 2°54.101 7.7 11.4 7 20.3
2009-09-28 11:14:22 51°25.507 2°54.104 7.6 11.4 7 20.6
2009-09-28 11:14:27 51°25.523 2°54.107 7.9 11.4 7 20.7
2009-09-28 11:14:32 51°25.539 2°54.11 8.1 11.4 7 20.4
2009-09-28 11:14:37 51°25.554 2°54.113 8 11.4 7 20.8
2009-09-28 11:14:42 51°25.57 2°54.116 7.8 11.4 7 20.9
2009-09-28 11:14:47 51°25.586 2°54.119 7.4 11.3 6 20.4
2009-09-28 11:14:52 51°25.601 2°54.122 7.3 11.3 7 20.8
2009-09-28 11:14:57 51°25.617 2°54.125 7.3 11.3 5 20.6
2009-09-28 11:15:02 51°25.633 2°54.127 6.6 11.3 7 20.7
2009-09-28 11:15:07 51°25.648 2°54.13 7.1 11.3 6 20.5
2009-09-28 11:15:12 51°25.664 2°54.133 7.5 11.3 7 20.5
2009-09-28 11:15:17 51°25.679 2°54.136 7.5 11.3 7 20.2
2009-09-28 11:15:22 51°25.695 2°54.139 7.9 11.4 7 19.2
2009-09-28 11:15:27 51°25.71 2°54.142 7.7 11.3 6 20.1
2009-09-28 11:15:32 51°25.726 2°54.145 7.6 11.3 7 20.7
2009-09-28 11:15:37 51°25.742 2°54.148 8 11.3 7 21.3
2009-09-28 11:15:42 51°25.757 2°54.152 8 11.3 7 21.8
2009-09-28 11:15:47 51°25.773 2°54.154 7.8 11.3 7 21.2
2009-09-28 11:15:52 51°25.788 2°54.158 8 11.3 8 21.6
2009-09-28 11:15:56 51°25.801 2°54.16 7.9 11.3 7 21.9
2009-09-28 11:16:02 51°25.819 2°54.164 7.7 11.3 7 22.1
2009-09-28 11:16:07 51°25.835 2°54.167 7.5 11.3 6 22
2009-09-28 11:16:12 51°25.85 2°54.169 7.3 11.3 7 21.4
2009-09-28 11:16:17 51°25.866 2°54.172 7.3 11.3 6 21.6
2009-09-28 11:16:22 51°25.881 2°54.175 7.2 11.3 6 21.9
2009-09-28 11:16:27 51°25.897 2°54.178 7.7 11.3 7 22.4
2009-09-28 11:16:32 51°25.913 2°54.181 7.8 11.3 7 22.6
2009-09-28 11:16:37 51°25.928 2°54.184 7.5 11.3 6 22.6
2009-09-28 11:16:42 51°25.944 2°54.186 7.3 11.3 7 22.4
2009-09-28 11:16:47 51°25.959 2°54.189 7.3 11.3 6 22.2
2009-09-28 11:16:52 51°25.975 2°54.192 6.7 11.3 6 22
2009-09-28 11:16:57 51°25.991 2°54.194 6.3 11.3 5 21.9
2009-09-28 11:17:02 51°26.006 2°54.197 6.2 11.3 6 22
2009-09-28 11:17:07 51°26.022 2°54.2 7.1 11.3 7 22
2009-09-28 11:17:12 51°26.037 2°54.202 7.3 11.3 6 22.3
2009-09-28 11:17:17 51°26.053 2°54.206 7.3 11.3 8 22.3
2009-09-28 11:17:22 51°26.069 2°54.209 7.6 11.3 6 22.2
2009-09-28 11:17:27 51°26.084 2°54.212 7.4 11.3 8 22.2
2009-09-28 11:17:32 51°26.1 2°54.214 7.3 11.2 6 22.5
2009-09-28 11:17:37 51°26.115 2°54.216 6.8 11.2 6 23.1
2009-09-28 11:17:42 51°26.131 2°54.219 6.4 11.2 7 23.6
2009-09-28 11:17:47 51°26.146 2°54.222 6.6 11.3 7 23.7
2009-09-28 11:17:52 51°26.162 2°54.225 7 11.2 7 23.7
2009-09-28 11:17:57 51°26.177 2°54.229 7.3 11.2 8 23.8
2009-09-28 11:18:02 51°26.192 2°54.231 7.6 11.3 7 23.8
2009-09-28 11:18:07 51°26.208 2°54.235 7.8 11.3 8 23.8
2009-09-28 11:18:12 51°26.223 2°54.238 8 11.2 7 23.7
2009-09-28 11:18:17 51°26.239 2°54.242 7.8 11.3 7 23.8
2009-09-28 11:18:22 51°26.254 2°54.244 7.6 11.3 6 24
2009-09-28 11:18:27 51°26.27 2°54.247 6.9 11.3 7 24
2009-09-28 11:18:32 51°26.286 2°54.25 7.2 11.3 7 24.5
2009-09-28 11:18:37 51°26.301 2°54.253 7.5 11.3 7 24.4
2009-09-28 11:18:42 51°26.317 2°54.257 7.6 11.3 8 24.4
2009-09-28 11:18:47 51°26.332 2°54.259 7.8 11.3 6 24.8
2009-09-28 11:18:52 51°26.348 2°54.263 7.7 11.3 7 25.1
2009-09-28 11:18:57 51°26.363 2°54.265 7.3 11.3 7 25
2009-09-28 11:19:02 51°26.379 2°54.269 7.7 11.3 7 24.8
2009-09-28 11:19:07 51°26.394 2°54.272 7.4 11.3 7 24.7
2009-09-28 11:19:12 51°26.41 2°54.275 7.7 11.3 7 24.9
2009-09-28 11:19:17 51°26.425 2°54.277 7.4 11.3 6 25.8
2009-09-28 11:19:22 51°26.441 2°54.281 7.4 11.3 7 26
2009-09-28 11:19:27 51°26.457 2°54.283 7.4 11.3 7 26.5
2009-09-28 11:19:32 51°26.472 2°54.287 7.8 11.3 7 27.2
2009-09-28 11:19:37 51°26.488 2°54.289 7.4 11.3 6 27.9
2009-09-28 11:19:42 51°26.503 2°54.292 7.3 11.3 7 28.4
2009-09-28 11:19:47 51°26.519 2°54.295 7.5 11.3 7 28.7
2009-09-28 11:19:52 51°26.535 2°54.298 7.7 11.3 6 28.9
2009-09-28 11:19:57 51°26.55 2°54.3 7.4 11.3 6 29
2009-09-28 11:20:02 51°26.566 2°54.303 7.5 11.3 6 29.4
2009-09-28 11:20:07 51°26.581 2°54.306 7.3 11.3 6 29.5
2009-09-28 11:20:12 51°26.597 2°54.308 7 11.3 5 29.7
2009-09-28 11:20:17 51°26.612 2°54.311 6.6 11.3 6 29.7
2009-09-28 11:20:22 51°26.628 2°54.314 7.2 11.3 6 29.8
2009-09-28 11:20:27 51°26.643 2°54.317 7.5 11.3 6 29.6
2009-09-28 11:20:32 51°26.659 2°54.319 6.9 11.3 6 29.1
2009-09-28 11:20:37 51°26.674 2°54.322 7.5 11.3 7 28.5
2009-09-28 11:20:42 51°26.69 2°54.326 8.2 11.3 8 28
2009-09-28 11:20:47 51°26.706 2°54.328 8.5 11.3 6 27.2
2009-09-28 11:20:52 51°26.722 2°54.332 8.4 11.4 8 26.5
2009-09-28 11:20:57 51°26.737 2°54.335 9.3 11.3 7 25.9
2009-09-28 11:21:02 51°26.753 2°54.338 9.1 11.3 7 25.5
2009-09-28 11:21:07 51°26.768 2°54.342 9.3 11.4 9 25.7
2009-09-28 11:21:12 51°26.784 2°54.345 9.5 11.3 7 25.2
2009-09-28 11:21:16 51°26.796 2°54.348 9.2 11.3 9 24.7